Time;durP1;ratioP1;P1;durP2;ratioP2;P2;SDS_P1;SDS_P2;PMS_P1;PMS_P2;Temp;Humidity;BMP_temperature;BMP_pressure;BME280_temperature;BME280_humidity;BME280_pressure;Samples;Min_cycle;Max_cycle;Signal;HPM_P1;HPM_P2
2022/07/06 00:01:19;;;;;;;;;;;;;;;;;;4998873;28;19919;-78
2022/07/06 00:03:44;;;;;;;;;;;;;;;;;;5015233;28;19910;-78
2022/07/06 00:06:09;;;;;;;;;;;;;;;;;;5016667;28;19913;-78
2022/07/06 00:08:34;;;;;;;;;;;;;;;;;;5016892;28;20360;-78
2022/07/06 00:11:00;;;;;;;;;;;;;;;;;;5016576;28;20209;-78
2022/07/06 00:13:25;;;;;;;;;;;;;;;;;;5014972;28;19975;-78
2022/07/06 00:15:50;;;;;;;;;;;;;;;;;;5016400;28;19913;-78
2022/07/06 00:18:16;;;;;;;;;;;;;;;;;;5015160;28;19909;-78
2022/07/06 00:20:41;;;;;;;;;;;;;;;;;;5014773;28;19915;-78
2022/07/06 00:23:06;;;;;;;;;;;;;;;;;;5016388;28;20364;-78
2022/07/06 00:25:32;;;;;;;;;;;;;;;;;;5016213;28;19910;-78
2022/07/06 00:27:57;;;;;;;;;;;;;;;;;;5014678;28;19909;-78
2022/07/06 00:30:22;;;;;;;;;;;;;;;;;;5016103;28;20383;-78
2022/07/06 00:32:48;;;;;;;;;;;;;;;;;;5015939;28;20012;-78
2022/07/06 00:35:13;;;;;;;;;;;;;;;;;;5014773;28;19917;-78
2022/07/06 00:37:38;;;;;;;;;;;;;;;;;;5015817;28;19913;-78
2022/07/06 00:40:04;;;;;;;;;;;;;;;;;;5016492;28;19913;-78
2022/07/06 00:42:29;;;;;;;;;;;;;;;;;;5015661;28;19968;-78
2022/07/06 00:44:55;;;;;;;;;;;;;;;;;;5016560;28;19917;-78
2022/07/06 00:47:20;;;;;;;;;;;;;;;;;;5015798;28;19913;-78
2022/07/06 00:52:29;;;;;;;;;;;;;;;;;;5015955;28;20387;-77
2022/07/06 00:54:54;;;;;;;;;;;;;;;;;;5015976;28;19914;-77
2022/07/06 00:57:19;;;;;;;;;;;;;;;;;;5017099;28;19920;-79
2022/07/06 00:59:45;;;;;;;;;;;;;;;;;;5014294;28;19913;-78
2022/07/06 01:02:10;;;;;;;;;;;;;;;;;;5015486;28;19925;-78
2022/07/06 01:04:35;;;;;;;;;;;;;;;;;;5015631;28;20356;-78
2022/07/06 01:07:01;;;;;;;;;;;;;;;;;;5014279;28;19940;-78
2022/07/06 01:09:26;;;;;;;;;;;;;;;;;;5013919;28;19915;-78
2022/07/06 01:11:52;;;;;;;;;;;;;;;;;;5015415;28;19914;-78
2022/07/06 01:14:17;;;;;;;;;;;;;;;;;;5014030;28;19924;-78
2022/07/06 01:16:44;;;;;;;;;;;;;;;;;;5013783;28;20380;-78
2022/07/06 01:19:09;;;;;;;;;;;;;;;;;;5013877;28;19909;-78
2022/07/06 01:21:35;;;;;;;;;;;;;;;;;;5013694;28;20324;-78
2022/07/06 01:24:00;;;;;;;;;;;;;;;;;;5014310;28;19945;-78
2022/07/06 01:26:25;;;;;;;;;;;;;;;;;;5014873;28;20000;-78
2022/07/06 01:28:51;;;;;;;;;;;;;;;;;;5014960;28;19917;-78
2022/07/06 01:31:26;;;;;;;;;;;;;;;;;;5013544;28;19964;-77
2022/07/06 01:33:52;;;;;;;;;;;;;;;;;;5014819;28;20372;-77
2022/07/06 01:36:17;;;;;;;;;;;;;;;;;;5013796;28;20379;-77
2022/07/06 01:38:44;;;;;;;;;;;;;;;;;;4996965;28;20011;-77
2022/07/06 01:41:09;;;;;;;;;;;;;;;;;;5013442;28;19913;-77
2022/07/06 01:43:34;;;;;;;;;;;;;;;;;;5014499;28;19921;-78
2022/07/06 01:46:00;;;;;;;;;;;;;;;;;;5014715;28;20402;-78
2022/07/06 01:48:25;;;;;;;;;;;;;;;;;;5014526;28;19932;-78
2022/07/06 01:50:50;;;;;;;;;;;;;;;;;;5014623;28;20017;-78
2022/07/06 01:53:15;;;;;;;;;;;;;;;;;;5014959;28;19913;-78
2022/07/06 01:55:41;;;;;;;;;;;;;;;;;;5015361;28;19913;-78
2022/07/06 01:58:06;;;;;;;;;;;;;;;;;;5013280;28;20390;-78
2022/07/06 02:00:31;;;;;;;;;;;;;;;;;;5014508;28;20277;-78
2022/07/06 02:02:56;;;;;;;;;;;;;;;;;;5014647;28;19916;-78
2022/07/06 02:05:22;;;;;;;;;;;;;;;;;;5014527;28;19914;-78
2022/07/06 02:07:47;;;;;;;;;;;;;;;;;;5014285;28;19913;-78
2022/07/06 02:10:12;;;;;;;;;;;;;;;;;;5014314;28;19913;-76
2022/07/06 02:12:37;;;;;;;;;;;;;;;;;;5013414;28;19996;-77
2022/07/06 02:15:03;;;;;;;;;;;;;;;;;;5012908;28;19917;-78
2022/07/06 02:17:28;;;;;;;;;;;;;;;;;;5014718;28;19917;-77
2022/07/06 02:19:53;;;;;;;;;;;;;;;;;;5013108;28;20419;-77
2022/07/06 02:22:19;;;;;;;;;;;;;;;;;;5014380;28;20245;-77
2022/07/06 02:24:44;;;;;;;;;;;;;;;;;;5014251;28;19913;-78
2022/07/06 02:27:09;;;;;;;;;;;;;;;;;;5012592;28;20299;-77
2022/07/06 02:29:34;;;;;;;;;;;;;;;;;;5012671;28;19917;-77
2022/07/06 02:32:01;;;;;;;;;;;;;;;;;;5014064;28;20360;-77
2022/07/06 02:34:27;;;;;;;;;;;;;;;;;;5014068;28;19924;-79
2022/07/06 02:36:52;;;;;;;;;;;;;;;;;;5014081;28;19913;-78
2022/07/06 02:39:17;;;;;;;;;;;;;;;;;;5012612;28;19913;-77
2022/07/06 02:41:42;;;;;;;;;;;;;;;;;;4996644;28;20525;-78
2022/07/06 02:44:08;;;;;;;;;;;;;;;;;;5013849;28;20352;-79
2022/07/06 02:46:33;;;;;;;;;;;;;;;;;;5012996;28;20012;-79
2022/07/06 02:48:58;;;;;;;;;;;;;;;;;;5012330;28;19921;-80
2022/07/06 02:51:23;;;;;;;;;;;;;;;;;;5012462;28;20391;-80
2022/07/06 02:53:49;;;;;;;;;;;;;;;;;;5012515;28;19937;-79
2022/07/06 02:56:14;;;;;;;;;;;;;;;;;;5012529;28;19939;-78
2022/07/06 02:58:39;;;;;;;;;;;;;;;;;;5013659;28;20295;-79
2022/07/06 03:01:05;;;;;;;;;;;;;;;;;;5013445;28;19979;-79
2022/07/06 03:03:30;;;;;;;;;;;;;;;;;;5012462;28;20291;-79
2022/07/06 03:05:55;;;;;;;;;;;;;;;;;;4995928;28;19976;-79
2022/07/06 03:08:20;;;;;;;;;;;;;;;;;;5014610;28;19914;-79
2022/07/06 03:10:46;;;;;;;;;;;;;;;;;;5012375;28;19996;-79
2022/07/06 03:13:11;;;;;;;;;;;;;;;;;;5014469;28;19979;-79
2022/07/06 03:15:36;;;;;;;;;;;;;;;;;;5012555;28;19917;-78
2022/07/06 03:18:01;;;;;;;;;;;;;;;;;;5013112;28;19935;-79
2022/07/06 03:20:27;;;;;;;;;;;;;;;;;;5013477;28;19949;-79
2022/07/06 03:22:52;;;;;;;;;;;;;;;;;;5014965;28;20422;-79
2022/07/06 03:25:17;;;;;;;;;;;;;;;;;;5018032;28;19913;-79
2022/07/06 03:27:42;;;;;;;;;;;;;;;;;;4999556;28;19945;-79
2022/07/06 03:30:08;;;;;;;;;;;;;;;;;;5017622;28;19920;-79
2022/07/06 03:32:33;;;;;;;;;;;;;;;;;;5015615;28;19917;-78
2022/07/06 03:34:58;;;;;;;;;;;;;;;;;;5016152;28;19936;-78
2022/07/06 03:37:24;;;;;;;;;;;;;;;;;;5017354;28;20279;-79
2022/07/06 03:39:49;;;;;;;;;;;;;;;;;;5015707;28;19952;-79
2022/07/06 03:42:14;;;;;;;;;;;;;;;;;;5017072;28;19918;-77
2022/07/06 03:44:39;;;;;;;;;;;;;;;;;;5017163;28;20379;-78
2022/07/06 03:47:05;;;;;;;;;;;;;;;;;;5015626;28;19943;-79
2022/07/06 03:49:30;;;;;;;;;;;;;;;;;;5015129;28;20000;-79
2022/07/06 03:51:55;;;;;;;;;;;;;;;;;;5015494;28;19913;-78
2022/07/06 03:54:21;;;;;;;;;;;;;;;;;;5015602;28;19932;-79
2022/07/06 03:56:46;;;;;;;;;;;;;;;;;;5015721;28;20417;-79
2022/07/06 03:59:11;;;;;;;;;;;;;;;;;;5016465;28;19921;-79
2022/07/06 04:01:36;;;;;;;;;;;;;;;;;;5016648;28;19917;-78
2022/07/06 04:04:02;;;;;;;;;;;;;;;;;;5015167;28;19914;-79
2022/07/06 04:06:27;;;;;;;;;;;;;;;;;;5015130;28;20319;-79
2022/07/06 04:08:52;;;;;;;;;;;;;;;;;;5016371;28;19936;-79
2022/07/06 04:11:17;;;;;;;;;;;;;;;;;;5015509;28;20008;-80
2022/07/06 04:13:43;;;;;;;;;;;;;;;;;;5014760;28;19971;-78
2022/07/06 04:16:08;;;;;;;;;;;;;;;;;;5016302;28;19917;-78
2022/07/06 04:18:34;;;;;;;;;;;;;;;;;;5015004;28;19914;-78
2022/07/06 04:20:59;;;;;;;;;;;;;;;;;;5015039;28;19964;-79
2022/07/06 04:23:24;;;;;;;;;;;;;;;;;;4998603;28;19913;-81
2022/07/06 04:25:50;;;;;;;;;;;;;;;;;;5016200;28;19990;-79
2022/07/06 04:28:15;;;;;;;;;;;;;;;;;;5016079;28;20379;-79
2022/07/06 04:30:40;;;;;;;;;;;;;;;;;;5014686;28;19956;-79
2022/07/06 04:33:05;;;;;;;;;;;;;;;;;;5016223;28;20322;-79
2022/07/06 04:35:31;;;;;;;;;;;;;;;;;;5015205;28;19917;-78
2022/07/06 04:37:56;;;;;;;;;;;;;;;;;;5016093;28;19913;-79
2022/07/06 04:40:21;;;;;;;;;;;;;;;;;;5016800;28;19952;-79
2022/07/06 04:42:46;;;;;;;;;;;;;;;;;;5015914;28;20272;-79
2022/07/06 04:45:12;;;;;;;;;;;;;;;;;;5016508;28;19918;-78
2022/07/06 04:47:37;;;;;;;;;;;;;;;;;;4998449;28;19913;-77
2022/07/06 04:50:03;;;;;;;;;;;;;;;;;;5014718;28;19917;-78
2022/07/06 04:52:28;;;;;;;;;;;;;;;;;;5014714;28;20360;-83
2022/07/06 04:54:54;;;;;;;;;;;;;;;;;;5016107;28;19920;-83
2022/07/06 04:57:19;;;;;;;;;;;;;;;;;;5015493;28;19996;-83
2022/07/06 04:59:44;;;;;;;;;;;;;;;;;;5014986;28;19919;-82
2022/07/06 05:02:10;;;;;;;;;;;;;;;;;;5015892;28;19922;-80
2022/07/06 05:04:35;;;;;;;;;;;;;;;;;;5015940;28;19913;-80
2022/07/06 05:07:00;;;;;;;;;;;;;;;;;;5015740;28;19913;-78
2022/07/06 05:09:25;;;;;;;;;;;;;;;;;;5014356;28;19959;-79
2022/07/06 05:11:51;;;;;;;;;;;;;;;;;;5015801;28;20012;-78
2022/07/06 05:14:16;;;;;;;;;;;;;;;;;;5014271;28;19945;-80
2022/07/06 05:16:41;;;;;;;;;;;;;;;;;;5014266;28;19909;-80
2022/07/06 05:19:06;;;;;;;;;;;;;;;;;;5015833;28;19913;-79
2022/07/06 05:21:32;;;;;;;;;;;;;;;;;;5014125;28;20291;-80
2022/07/06 05:23:57;;;;;;;;;;;;;;;;;;5014520;28;20000;-80
2022/07/06 05:26:22;;;;;;;;;;;;;;;;;;5015169;28;19920;-80
2022/07/06 05:28:47;;;;;;;;;;;;;;;;;;5015234;28;19913;-80
2022/07/06 05:31:13;;;;;;;;;;;;;;;;;;5017207;28;19917;-81
2022/07/06 05:33:38;;;;;;;;;;;;;;;;;;5015412;28;19913;-81
2022/07/06 05:36:03;;;;;;;;;;;;;;;;;;5013964;28;19917;-81
2022/07/06 05:38:29;;;;;;;;;;;;;;;;;;5014072;28;20295;-80
2022/07/06 05:40:54;;;;;;;;;;;;;;;;;;5014919;28;19940;-80
2022/07/06 05:43:19;;;;;;;;;;;;;;;;;;5013785;28;19959;-80
2022/07/06 05:45:45;;;;;;;;;;;;;;;;;;5013947;28;19909;-80
2022/07/06 05:50:54;;;;;;;;;;;;;;;;;;5015268;28;19924;-80
2022/07/06 05:53:19;;;;;;;;;;;;;;;;;;5014081;28;20307;-80
2022/07/06 05:55:45;;;;;;;;;;;;;;;;;;5014864;28;19916;-80
2022/07/06 05:58:10;;;;;;;;;;;;;;;;;;5013984;28;20035;-81
2022/07/06 06:00:35;;;;;;;;;;;;;;;;;;5014868;28;19913;-81
2022/07/06 06:03:01;;;;;;;;;;;;;;;;;;5014613;28;19924;-80
2022/07/06 06:05:26;;;;;;;;;;;;;;;;;;5013738;28;19916;-81
2022/07/06 06:07:52;;;;;;;;;;;;;;;;;;5014604;28;19909;-80
2022/07/06 06:10:18;;;;;;;;;;;;;;;;;;5014483;28;19913;-80
2022/07/06 06:12:43;;;;;;;;;;;;;;;;;;5014146;28;20059;-81
2022/07/06 06:15:09;;;;;;;;;;;;;;;;;;5015021;28;19971;-80
2022/07/06 06:17:35;;;;;;;;;;;;;;;;;;5014449;28;20287;-81
2022/07/06 06:20:00;;;;;;;;;;;;;;;;;;5013337;28;20378;-81
2022/07/06 06:22:25;;;;;;;;;;;;;;;;;;5014263;28;19917;-80
2022/07/06 06:24:51;;;;;;;;;;;;;;;;;;5014671;28;19913;-80
2022/07/06 06:27:16;;;;;;;;;;;;;;;;;;5015963;28;20378;-80
2022/07/06 06:29:43;;;;;;;;;;;;;;;;;;5016763;28;20008;-80
2022/07/06 06:32:09;;;;;;;;;;;;;;;;;;4999685;28;19909;-80
2022/07/06 06:34:34;;;;;;;;;;;;;;;;;;5016676;28;19909;-79
2022/07/06 06:36:59;;;;;;;;;;;;;;;;;;5016270;28;19913;-79
2022/07/06 06:39:28;;;;;;;;;;;;;;;;;;5018528;28;19920;-79
2022/07/06 06:41:53;;;;;;;;;;;;;;;;;;5023656;28;20001;-79
2022/07/06 06:44:18;;;;;;;;;;;;;;;;;;5025694;28;19926;-79
2022/07/06 06:46:44;;;;;;;;;;;;;;;;;;5023747;28;19936;-79
2022/07/06 06:49:09;;;;;;;;;;;;;;;;;;5025631;28;19921;-80
2022/07/06 06:51:35;;;;;;;;;;;;;;;;;;5023990;28;19913;-80
2022/07/06 06:54:00;;;;;;;;;;;;;;;;;;5018692;28;19916;-80
2022/07/06 06:56:26;;;;;;;;;;;;;;;;;;5001916;28;19909;-80
2022/07/06 06:58:51;;;;;;;;;;;;;;;;;;5020063;28;19916;-80
2022/07/06 07:01:16;;;;;;;;;;;;;;;;;;5020301;28;20386;-79
2022/07/06 07:03:41;;;;;;;;;;;;;;;;;;5020385;28;19913;-79
2022/07/06 07:06:07;;;;;;;;;;;;;;;;;;5020796;28;19959;-79
2022/07/06 07:08:32;;;;;;;;;;;;;;;;;;5021726;28;19914;-79
2022/07/06 07:10:57;;;;;;;;;;;;;;;;;;5018559;28;19909;-79
2022/07/06 07:13:23;;;;;;;;;;;;;;;;;;5017535;28;20264;-79
2022/07/06 07:15:48;;;;;;;;;;;;;;;;;;5018922;28;20376;-79
2022/07/06 07:18:13;;;;;;;;;;;;;;;;;;5018701;28;19999;-79
2022/07/06 07:20:38;;;;;;;;;;;;;;;;;;5019043;28;19909;-80
2022/07/06 07:23:04;;;;;;;;;;;;;;;;;;5017447;28;19917;-80
2022/07/06 07:25:29;;;;;;;;;;;;;;;;;;5018544;28;20339;-80
2022/07/06 07:27:54;;;;;;;;;;;;;;;;;;5016295;28;19949;-80
2022/07/06 07:30:20;;;;;;;;;;;;;;;;;;5015745;28;19914;-79
2022/07/06 07:32:45;;;;;;;;;;;;;;;;;;5017616;28;19914;-80
2022/07/06 07:35:10;;;;;;;;;;;;;;;;;;5016369;28;20000;-80
2022/07/06 07:37:35;;;;;;;;;;;;;;;;;;5015887;28;19920;-80
2022/07/06 07:40:01;;;;;;;;;;;;;;;;;;5016274;28;19914;-80
2022/07/06 07:42:26;;;;;;;;;;;;;;;;;;5016136;28;20390;-81
2022/07/06 07:44:51;;;;;;;;;;;;;;;;;;5019625;28;20340;-80
2022/07/06 07:47:17;;;;;;;;;;;;;;;;;;5018527;28;19924;-80
2022/07/06 07:49:42;;;;;;;;;;;;;;;;;;5019475;28;19921;-80
2022/07/06 07:52:07;;;;;;;;;;;;;;;;;;5021403;28;19909;-80
2022/07/06 07:54:33;;;;;;;;;;;;;;;;;;5018783;28;19920;-78
2022/07/06 07:56:58;;;;;;;;;;;;;;;;;;5011828;28;19974;-80
2022/07/06 07:59:23;;;;;;;;;;;;;;;;;;5001454;28;19917;-77
2022/07/06 08:01:48;;;;;;;;;;;;;;;;;;5015947;28;20385;-76
2022/07/06 08:04:14;;;;;;;;;;;;;;;;;;5018783;28;19917;-77
2022/07/06 08:06:39;;;;;;;;;;;;;;;;;;5000945;28;20253;-76
2022/07/06 08:09:07;;;;;;;;;;;;;;;;;;5015689;28;19914;-77
2022/07/06 08:11:32;;;;;;;;;;;;;;;;;;5016890;28;19913;-75
2022/07/06 08:13:57;;;;;;;;;;;;;;;;;;5017057;28;19917;-78
2022/07/06 08:16:23;;;;;;;;;;;;;;;;;;5016664;28;19971;-79
2022/07/06 08:18:48;;;;;;;;;;;;;;;;;;5016260;28;19914;-79
2022/07/06 08:21:13;;;;;;;;;;;;;;;;;;5015064;28;19968;-79
2022/07/06 08:23:39;;;;;;;;;;;;;;;;;;5015442;28;19913;-78
2022/07/06 08:26:04;;;;;;;;;;;;;;;;;;5017244;28;20000;-80
2022/07/06 08:28:29;;;;;;;;;;;;;;;;;;4999204;28;19925;-81
2022/07/06 08:30:55;;;;;;;;;;;;;;;;;;5016810;28;19959;-80
2022/07/06 08:33:20;;;;;;;;;;;;;;;;;;5016765;28;19963;-80
2022/07/06 08:35:45;;;;;;;;;;;;;;;;;;5017091;28;19998;-80
2022/07/06 08:38:11;;;;;;;;;;;;;;;;;;5015273;28;19913;-80
2022/07/06 08:40:36;;;;;;;;;;;;;;;;;;5016876;28;19977;-80
2022/07/06 08:43:01;;;;;;;;;;;;;;;;;;5015337;28;20332;-80
2022/07/06 08:45:27;;;;;;;;;;;;;;;;;;5015236;28;19917;-80
2022/07/06 08:47:52;;;;;;;;;;;;;;;;;;4999255;28;20319;-80
2022/07/06 08:50:20;;;;;;;;;;;;;;;;;;5015133;28;19921;-80
2022/07/06 08:52:45;;;;;;;;;;;;;;;;;;5016206;28;19916;-81
2022/07/06 08:55:11;;;;;;;;;;;;;;;;;;5015193;28;19910;-79
2022/07/06 08:57:36;;;;;;;;;;;;;;;;;;5016789;28;20436;-79
2022/07/06 09:00:01;;;;;;;;;;;;;;;;;;5015848;28;19917;-81
2022/07/06 09:02:26;;;;;;;;;;;;;;;;;;5015112;28;19913;-81
2022/07/06 09:04:53;;;;;;;;;;;;;;;;;;5015305;28;19917;-80
2022/07/06 09:07:18;;;;;;;;;;;;;;;;;;5014843;28;19915;-81
2022/07/06 09:09:45;;;;;;;;;;;;;;;;;;5016517;28;19917;-82
2022/07/06 09:12:13;;;;;;;;;;;;;;;;;;5015832;28;20391;-84
2022/07/06 09:14:38;;;;;;;;;;;;;;;;;;5018565;28;19918;-79
2022/07/06 09:17:05;;;;;;;;;;;;;;;;;;5017704;28;19921;-81
2022/07/06 09:19:31;;;;;;;;;;;;;;;;;;5016711;28;19953;-81
2022/07/06 09:21:56;;;;;;;;;;;;;;;;;;5015706;28;19918;-79
2022/07/06 09:24:22;;;;;;;;;;;;;;;;;;5017742;28;19910;-77
2022/07/06 09:26:47;;;;;;;;;;;;;;;;;;5018187;28;19955;-80
2022/07/06 09:29:13;;;;;;;;;;;;;;;;;;5017115;28;19951;-79
2022/07/06 09:31:39;;;;;;;;;;;;;;;;;;4998494;28;19913;-80
2022/07/06 09:34:05;;;;;;;;;;;;;;;;;;5017174;28;19943;-79
2022/07/06 09:36:40;;;;;;;;;;;;;;;;;;5001626;28;19951;-80
2022/07/06 09:39:24;;;;;;;;;;;;;;;;;;5018728;28;20016;-78
2022/07/06 09:41:54;;;;;;;;;;;;;;;;;;5016957;28;19972;-78
2022/07/06 09:44:22;;;;;;;;;;;;;;;;;;5016742;28;19966;-79
2022/07/06 09:46:48;;;;;;;;;;;;;;;;;;5017688;28;19909;-79
2022/07/06 09:49:16;;;;;;;;;;;;;;;;;;5016094;28;19929;-80
2022/07/06 09:51:41;;;;;;;;;;;;;;;;;;5018130;28;20326;-80
2022/07/06 09:54:08;;;;;;;;;;;;;;;;;;5017077;28;19913;-80
2022/07/06 09:56:37;;;;;;;;;;;;;;;;;;5016490;28;19913;-80
2022/07/06 09:59:09;;;;;;;;;;;;;;;;;;5018027;28;19964;-80
2022/07/06 10:01:35;;;;;;;;;;;;;;;;;;5016856;28;19914;-80
2022/07/06 10:04:01;;;;;;;;;;;;;;;;;;5013784;28;19941;-81
2022/07/06 10:06:26;;;;;;;;;;;;;;;;;;4996055;28;19920;-80
2022/07/06 10:08:52;;;;;;;;;;;;;;;;;;4996926;28;20315;-81
2022/07/06 10:11:17;;;;;;;;;;;;;;;;;;5015677;28;20275;-79
2022/07/06 10:13:42;;;;;;;;;;;;;;;;;;5015902;28;19917;-79
2022/07/06 10:16:08;;;;;;;;;;;;;;;;;;5016541;28;19916;-79
2022/07/06 10:18:33;;;;;;;;;;;;;;;;;;4999966;28;19917;-81
2022/07/06 10:20:59;;;;;;;;;;;;;;;;;;5016637;28;19913;-80
2022/07/06 10:23:24;;;;;;;;;;;;;;;;;;5016486;28;19949;-79
2022/07/06 10:25:49;;;;;;;;;;;;;;;;;;5016663;28;19914;-78
2022/07/06 10:28:14;;;;;;;;;;;;;;;;;;5014745;28;19935;-77
2022/07/06 10:30:40;;;;;;;;;;;;;;;;;;4999106;28;19910;-78
2022/07/06 10:33:05;;;;;;;;;;;;;;;;;;5016451;28;20019;-78
2022/07/06 10:35:31;;;;;;;;;;;;;;;;;;5017185;28;19917;-80
2022/07/06 10:38:06;;;;;;;;;;;;;;;;;;4999431;28;19960;-79
2022/07/06 10:43:15;;;;;;;;;;;;;;;;;;5013470;28;19921;-78
2022/07/06 10:45:44;;;;;;;;;;;;;;;;;;5014234;28;19913;-78
2022/07/06 10:48:12;;;;;;;;;;;;;;;;;;5014886;28;19918;-79
2022/07/06 10:50:41;;;;;;;;;;;;;;;;;;5014090;28;19999;-79
2022/07/06 10:53:10;;;;;;;;;;;;;;;;;;5013009;28;20360;-79
2022/07/06 10:55:36;;;;;;;;;;;;;;;;;;5013130;28;19973;-79
2022/07/06 10:58:01;;;;;;;;;;;;;;;;;;5013458;28;19955;-79
2022/07/06 11:00:33;;;;;;;;;;;;;;;;;;5014455;28;19945;-80
2022/07/06 11:03:07;;;;;;;;;;;;;;;;;;5012678;28;19936;-79
2022/07/06 11:05:39;;;;;;;;;;;;;;;;;;5013461;28;19931;-78
2022/07/06 11:08:05;;;;;;;;;;;;;;;;;;5014466;28;19918;-77
2022/07/06 11:10:45;;;;;;;;;;;;;;;;;;5013237;28;19980;-78
2022/07/06 11:13:24;;;;;;;;;;;;;;;;;;5012671;28;19955;-79
2022/07/06 11:15:49;;;;;;;;;;;;;;;;;;5013093;28;19909;-79
2022/07/06 11:18:14;;;;;;;;;;;;;;;;;;5014761;28;19920;-79
2022/07/06 11:20:40;;;;;;;;;;;;;;;;;;5013821;28;19916;-79
2022/07/06 11:23:05;;;;;;;;;;;;;;;;;;5010809;28;19917;-80
2022/07/06 11:25:31;;;;;;;;;;;;;;;;;;5015285;28;20418;-79
2022/07/06 11:27:56;;;;;;;;;;;;;;;;;;5014732;28;19914;-80
2022/07/06 11:30:21;;;;;;;;;;;;;;;;;;4997765;28;20375;-80
2022/07/06 11:32:46;;;;;;;;;;;;;;;;;;5014082;28;19913;-82
2022/07/06 11:35:12;;;;;;;;;;;;;;;;;;5013256;28;19920;-81
2022/07/06 11:37:37;;;;;;;;;;;;;;;;;;5013786;28;19914;-81
2022/07/06 11:40:08;;;;;;;;;;;;;;;;;;5015128;28;20017;-81
2022/07/06 11:42:35;;;;;;;;;;;;;;;;;;5014243;28;20434;-81
2022/07/06 11:45:01;;;;;;;;;;;;;;;;;;5017731;28;19917;-80
2022/07/06 11:47:30;;;;;;;;;;;;;;;;;;5000447;28;19955;-80
2022/07/06 11:49:57;;;;;;;;;;;;;;;;;;5016614;28;19917;-81
2022/07/06 11:52:23;;;;;;;;;;;;;;;;;;5016871;28;19909;-80
2022/07/06 11:54:48;;;;;;;;;;;;;;;;;;5017000;28;19963;-80
2022/07/06 11:57:14;;;;;;;;;;;;;;;;;;5018637;28;19964;-81
2022/07/06 11:59:40;;;;;;;;;;;;;;;;;;5001665;28;19913;-82
2022/07/06 12:02:10;;;;;;;;;;;;;;;;;;5016916;28;19918;-81
2022/07/06 12:04:36;;;;;;;;;;;;;;;;;;5019320;28;19981;-81
2022/07/06 12:07:05;;;;;;;;;;;;;;;;;;5000079;28;19983;-81
2022/07/06 12:09:31;;;;;;;;;;;;;;;;;;5019335;28;19910;-80
2022/07/06 12:11:57;;;;;;;;;;;;;;;;;;5016383;28;19921;-78
2022/07/06 12:14:22;;;;;;;;;;;;;;;;;;5017808;28;19963;-80
2022/07/06 12:16:48;;;;;;;;;;;;;;;;;;5016601;28;19917;-81
2022/07/06 12:19:13;;;;;;;;;;;;;;;;;;5016865;28;19909;-80
2022/07/06 12:21:42;;;;;;;;;;;;;;;;;;5000595;28;19913;-79
2022/07/06 12:24:10;;;;;;;;;;;;;;;;;;5017147;28;19916;-84
2022/07/06 12:26:39;;;;;;;;;;;;;;;;;;5016815;28;20007;-79
2022/07/06 12:29:08;;;;;;;;;;;;;;;;;;5015471;28;19913;-78
2022/07/06 12:31:35;;;;;;;;;;;;;;;;;;5017605;28;19913;-78
2022/07/06 12:34:00;;;;;;;;;;;;;;;;;;5017645;28;19980;-78
2022/07/06 12:36:26;;;;;;;;;;;;;;;;;;5019464;28;20356;-78
2022/07/06 12:38:51;;;;;;;;;;;;;;;;;;5022872;28;19913;-78
2022/07/06 12:41:28;;;;;;;;;;;;;;;;;;5020523;28;19921;-78
2022/07/06 12:44:07;;;;;;;;;;;;;;;;;;5022069;28;19921;-80
2022/07/06 12:46:37;;;;;;;;;;;;;;;;;;5021520;28;19921;-80
2022/07/06 12:49:13;;;;;;;;;;;;;;;;;;5023843;28;19917;-81
2022/07/06 12:51:57;;;;;;;;;;;;;;;;;;5004916;28;19968;-80
2022/07/06 12:54:23;;;;;;;;;;;;;;;;;;5022532;28;19917;-79
2022/07/06 12:56:55;;;;;;;;;;;;;;;;;;5002367;28;19948;-80
2022/07/06 12:59:22;;;;;;;;;;;;;;;;;;5017329;28;19976;-80
2022/07/06 13:01:47;;;;;;;;;;;;;;;;;;5016326;28;19944;-80
2022/07/06 13:04:12;;;;;;;;;;;;;;;;;;5015149;28;19909;-81
2022/07/06 13:06:38;;;;;;;;;;;;;;;;;;5015238;28;19936;-80
2022/07/06 13:09:03;;;;;;;;;;;;;;;;;;5015723;28;19917;-79
2022/07/06 13:11:28;;;;;;;;;;;;;;;;;;5015110;28;19963;-78
2022/07/06 13:13:54;;;;;;;;;;;;;;;;;;5013585;28;19921;-79
2022/07/06 13:16:19;;;;;;;;;;;;;;;;;;5014657;28;20393;-79
2022/07/06 13:18:44;;;;;;;;;;;;;;;;;;5016590;28;20399;-80
2022/07/06 13:21:11;;;;;;;;;;;;;;;;;;4997794;28;19909;-79
2022/07/06 13:23:36;;;;;;;;;;;;;;;;;;5016084;28;19946;-80
2022/07/06 13:26:01;;;;;;;;;;;;;;;;;;4998365;28;19932;-80
2022/07/06 13:28:26;;;;;;;;;;;;;;;;;;5017245;28;19921;-82
2022/07/06 13:30:52;;;;;;;;;;;;;;;;;;5015400;28;20437;-83
2022/07/06 13:33:17;;;;;;;;;;;;;;;;;;5017443;28;19913;-85
2022/07/06 13:35:42;;;;;;;;;;;;;;;;;;5017570;28;19917;-83
2022/07/06 13:38:08;;;;;;;;;;;;;;;;;;5014753;28;20403;-82
2022/07/06 13:40:35;;;;;;;;;;;;;;;;;;5015953;28;19983;-81
2022/07/06 13:43:00;;;;;;;;;;;;;;;;;;5017644;28;19968;-81
2022/07/06 13:45:25;;;;;;;;;;;;;;;;;;5014990;28;20004;-80
2022/07/06 13:47:51;;;;;;;;;;;;;;;;;;5017565;28;19917;-80
2022/07/06 13:50:16;;;;;;;;;;;;;;;;;;5017035;28;19920;-80
2022/07/06 13:52:41;;;;;;;;;;;;;;;;;;5014972;28;20465;-80
2022/07/06 13:55:07;;;;;;;;;;;;;;;;;;5014810;28;19914;-80
2022/07/06 13:57:32;;;;;;;;;;;;;;;;;;5014527;28;20056;-80
2022/07/06 13:59:57;;;;;;;;;;;;;;;;;;5013930;28;19913;-80
2022/07/06 14:02:23;;;;;;;;;;;;;;;;;;5013109;28;19924;-80
2022/07/06 14:04:48;;;;;;;;;;;;;;;;;;5012761;28;19995;-80
2022/07/06 14:07:13;;;;;;;;;;;;;;;;;;5014066;28;20372;-81
2022/07/06 14:09:38;;;;;;;;;;;;;;;;;;5014103;28;19920;-80
2022/07/06 14:12:04;;;;;;;;;;;;;;;;;;5014161;28;19917;-80
2022/07/06 14:14:29;;;;;;;;;;;;;;;;;;5013902;28;19967;-80
2022/07/06 14:16:55;;;;;;;;;;;;;;;;;;5012670;28;19996;-80
2022/07/06 14:19:22;;;;;;;;;;;;;;;;;;5013869;28;19913;-80
2022/07/06 14:21:47;;;;;;;;;;;;;;;;;;4996112;28;20047;-81
2022/07/06 14:24:12;;;;;;;;;;;;;;;;;;5014026;28;20332;-81
2022/07/06 14:26:38;;;;;;;;;;;;;;;;;;5012983;28;19999;-81
2022/07/06 14:29:03;;;;;;;;;;;;;;;;;;5014599;28;19913;-80
2022/07/06 14:31:28;;;;;;;;;;;;;;;;;;5013747;28;20376;-81
2022/07/06 14:33:53;;;;;;;;;;;;;;;;;;5014127;28;19963;-81
2022/07/06 14:36:19;;;;;;;;;;;;;;;;;;5015461;28;19920;-79
2022/07/06 14:38:44;;;;;;;;;;;;;;;;;;5013595;28;20385;-81
2022/07/06 14:41:09;;;;;;;;;;;;;;;;;;4996396;28;20435;-82
2022/07/06 14:43:36;;;;;;;;;;;;;;;;;;5013804;28;19924;-80
2022/07/06 14:46:01;;;;;;;;;;;;;;;;;;5014177;28;19913;-79
2022/07/06 14:48:26;;;;;;;;;;;;;;;;;;5014392;28;20016;-79
2022/07/06 14:50:52;;;;;;;;;;;;;;;;;;5015052;28;19920;-80
2022/07/06 14:53:17;;;;;;;;;;;;;;;;;;5014190;28;19914;-80
2022/07/06 14:55:43;;;;;;;;;;;;;;;;;;5015263;28;20030;-80
2022/07/06 14:58:08;;;;;;;;;;;;;;;;;;5015759;28;19952;-80
2022/07/06 15:00:33;;;;;;;;;;;;;;;;;;5013627;28;20339;-80
2022/07/06 15:02:59;;;;;;;;;;;;;;;;;;5014824;28;19918;-79
2022/07/06 15:05:24;;;;;;;;;;;;;;;;;;5014764;28;19976;-78
2022/07/06 15:07:49;;;;;;;;;;;;;;;;;;5014513;28;19917;-77
2022/07/06 15:10:14;;;;;;;;;;;;;;;;;;5014051;28;20279;-78
2022/07/06 15:12:40;;;;;;;;;;;;;;;;;;5013640;28;20036;-77
2022/07/06 15:15:05;;;;;;;;;;;;;;;;;;5013522;28;19967;-78
2022/07/06 15:17:31;;;;;;;;;;;;;;;;;;5012303;28;20359;-77
2022/07/06 15:19:57;;;;;;;;;;;;;;;;;;5016285;28;19920;-78
2022/07/06 15:22:23;;;;;;;;;;;;;;;;;;5016322;28;19913;-79
2022/07/06 15:24:48;;;;;;;;;;;;;;;;;;5001425;28;20415;-80
2022/07/06 15:27:13;;;;;;;;;;;;;;;;;;5000046;28;20020;-78
2022/07/06 15:29:38;;;;;;;;;;;;;;;;;;5016855;28;19920;-78
2022/07/06 15:32:04;;;;;;;;;;;;;;;;;;5016836;28;19924;-79
2022/07/06 15:34:29;;;;;;;;;;;;;;;;;;5017030;28;19967;-79
2022/07/06 15:36:55;;;;;;;;;;;;;;;;;;5015649;28;19913;-80
2022/07/06 15:39:20;;;;;;;;;;;;;;;;;;5016756;28;20275;-81
2022/07/06 15:41:46;;;;;;;;;;;;;;;;;;5016517;28;19917;-80
2022/07/06 15:44:11;;;;;;;;;;;;;;;;;;5016473;28;19917;-79
2022/07/06 15:46:36;;;;;;;;;;;;;;;;;;5015250;28;19921;-79
2022/07/06 15:49:02;;;;;;;;;;;;;;;;;;5015118;28;19917;-79
2022/07/06 15:51:27;;;;;;;;;;;;;;;;;;5015318;28;19915;-78
2022/07/06 15:53:52;;;;;;;;;;;;;;;;;;5018234;28;19913;-79
2022/07/06 15:56:18;;;;;;;;;;;;;;;;;;5016698;28;20364;-79
2022/07/06 15:58:43;;;;;;;;;;;;;;;;;;5015103;28;19909;-80
2022/07/06 16:01:08;;;;;;;;;;;;;;;;;;5015222;28;19909;-81
2022/07/06 16:03:34;;;;;;;;;;;;;;;;;;5015248;28;19913;-83
2022/07/06 16:06:00;;;;;;;;;;;;;;;;;;5016563;28;19913;-78
2022/07/06 16:08:25;;;;;;;;;;;;;;;;;;5015300;28;19913;-78
2022/07/06 16:10:51;;;;;;;;;;;;;;;;;;5015772;28;19917;-79
2022/07/06 16:13:16;;;;;;;;;;;;;;;;;;5017513;28;19963;-79
2022/07/06 16:15:41;;;;;;;;;;;;;;;;;;5016165;28;19920;-79
2022/07/06 16:18:07;;;;;;;;;;;;;;;;;;5015523;28;19924;-78
2022/07/06 16:20:32;;;;;;;;;;;;;;;;;;5016006;28;20051;-79
2022/07/06 16:22:57;;;;;;;;;;;;;;;;;;5016250;28;19917;-81
2022/07/06 16:25:24;;;;;;;;;;;;;;;;;;5014490;28;19913;-81
2022/07/06 16:27:50;;;;;;;;;;;;;;;;;;5014432;28;20226;-81
2022/07/06 16:30:15;;;;;;;;;;;;;;;;;;5013242;28;19909;-81
2022/07/06 16:32:40;;;;;;;;;;;;;;;;;;5014513;28;19909;-82
2022/07/06 16:35:06;;;;;;;;;;;;;;;;;;5014595;28;19909;-81
2022/07/06 16:37:31;;;;;;;;;;;;;;;;;;5014311;28;19992;-81
2022/07/06 16:39:56;;;;;;;;;;;;;;;;;;5015560;28;19963;-81
2022/07/06 16:42:22;;;;;;;;;;;;;;;;;;5014063;28;19920;-81
2022/07/06 16:44:47;;;;;;;;;;;;;;;;;;5015703;28;19924;-81